sensor_id;sensor_type;location;lat;lon;timestamp;P1;durP1;ratioP1;P2;durP2;ratioP2
25559;SDS011;13450;49.374;8.584;2023-02-28T00:01:30;3.92;;;1.33;;
25559;SDS011;13450;49.374;8.584;2023-02-28T00:03:56;3.65;;;1.40;;
25559;SDS011;13450;49.374;8.584;2023-02-28T00:06:21;3.15;;;1.30;;
25559;SDS011;13450;49.374;8.584;2023-02-28T00:08:47;3.22;;;1.30;;
25559;SDS011;13450;49.374;8.584;2023-02-28T00:11:13;3.03;;;1.25;;
25559;SDS011;13450;49.374;8.584;2023-02-28T00:13:40;3.50;;;1.50;;
25559;SDS011;13450;49.374;8.584;2023-02-28T00:16:11;4.05;;;1.40;;
25559;SDS011;13450;49.374;8.584;2023-02-28T00:18:38;2.30;;;1.05;;
25559;SDS011;13450;49.374;8.584;2023-02-28T00:21:04;3.03;;;1.50;;
25559;SDS011;13450;49.374;8.584;2023-02-28T00:23:30;3.00;;;1.30;;
25559;SDS011;13450;49.374;8.584;2023-02-28T00:25:55;2.30;;;1.15;;
25559;SDS011;13450;49.374;8.584;2023-02-28T00:28:21;3.65;;;1.20;;
25559;SDS011;13450;49.374;8.584;2023-02-28T00:30:49;2.80;;;1.20;;
25559;SDS011;13450;49.374;8.584;2023-02-28T00:33:14;3.63;;;1.23;;
25559;SDS011;13450;49.374;8.584;2023-02-28T00:35:40;2.65;;;1.30;;
25559;SDS011;13450;49.374;8.584;2023-02-28T00:38:05;4.50;;;1.55;;
25559;SDS011;13450;49.374;8.584;2023-02-28T00:40:31;2.85;;;1.20;;
25559;SDS011;13450;49.374;8.584;2023-02-28T00:42:58;2.83;;;1.27;;
25559;SDS011;13450;49.374;8.584;2023-02-28T00:45:24;3.17;;;1.10;;
25559;SDS011;13450;49.374;8.584;2023-02-28T00:47:49;2.45;;;1.30;;
25559;SDS011;13450;49.374;8.584;2023-02-28T00:50:17;5.78;;;1.48;;
25559;SDS011;13450;49.374;8.584;2023-02-28T00:52:46;2.50;;;1.33;;
25559;SDS011;13450;49.374;8.584;2023-02-28T00:55:12;2.42;;;1.20;;
25559;SDS011;13450;49.374;8.584;2023-02-28T00:57:37;2.60;;;1.30;;
25559;SDS011;13450;49.374;8.584;2023-02-28T01:00:03;3.05;;;1.33;;
25559;SDS011;13450;49.374;8.584;2023-02-28T01:02:29;3.08;;;1.27;;
25559;SDS011;13450;49.374;8.584;2023-02-28T01:04:54;3.00;;;1.10;;
25559;SDS011;13450;49.374;8.584;2023-02-28T01:07:21;4.57;;;1.30;;
25559;SDS011;13450;49.374;8.584;2023-02-28T01:09:49;2.47;;;1.20;;
25559;SDS011;13450;49.374;8.584;2023-02-28T01:12:14;4.32;;;1.40;;
25559;SDS011;13450;49.374;8.584;2023-02-28T01:14:42;2.80;;;1.20;;
25559;SDS011;13450;49.374;8.584;2023-02-28T01:17:08;2.47;;;1.10;;
25559;SDS011;13450;49.374;8.584;2023-02-28T01:19:34;2.67;;;1.20;;
25559;SDS011;13450;49.374;8.584;2023-02-28T01:22:01;3.10;;;1.30;;
25559;SDS011;13450;49.374;8.584;2023-02-28T01:24:27;3.65;;;1.58;;
25559;SDS011;13450;49.374;8.584;2023-02-28T01:26:52;3.05;;;1.20;;
25559;SDS011;13450;49.374;8.584;2023-02-28T01:29:18;3.65;;;1.33;;
25559;SDS011;13450;49.374;8.584;2023-02-28T01:31:43;3.20;;;1.40;;
25559;SDS011;13450;49.374;8.584;2023-02-28T01:34:08;4.60;;;1.40;;
25559;SDS011;13450;49.374;8.584;2023-02-28T01:36:33;2.42;;;1.30;;
25559;SDS011;13450;49.374;8.584;2023-02-28T01:38:59;3.72;;;1.42;;
25559;SDS011;13450;49.374;8.584;2023-02-28T01:41:25;4.75;;;1.40;;
25559;SDS011;13450;49.374;8.584;2023-02-28T01:43:54;3.15;;;1.40;;
25559;SDS011;13450;49.374;8.584;2023-02-28T01:46:21;3.78;;;1.52;;
25559;SDS011;13450;49.374;8.584;2023-02-28T01:48:48;5.97;;;1.63;;
25559;SDS011;13450;49.374;8.584;2023-02-28T01:51:42;3.95;;;1.23;;
25559;SDS011;13450;49.374;8.584;2023-02-28T01:54:13;3.60;;;1.80;;
25559;SDS011;13450;49.374;8.584;2023-02-28T01:56:43;3.55;;;1.55;;
25559;SDS011;13450;49.374;8.584;2023-02-28T01:59:13;4.93;;;1.70;;
25559;SDS011;13450;49.374;8.584;2023-02-28T02:01:44;3.22;;;1.35;;
25559;SDS011;13450;49.374;8.584;2023-02-28T02:04:10;3.58;;;1.45;;
25559;SDS011;13450;49.374;8.584;2023-02-28T02:06:40;3.50;;;1.52;;
25559;SDS011;13450;49.374;8.584;2023-02-28T02:09:09;5.95;;;1.50;;
25559;SDS011;13450;49.374;8.584;2023-02-28T02:11:34;4.07;;;1.60;;
25559;SDS011;13450;49.374;8.584;2023-02-28T02:19:14;3.17;;;1.58;;
25559;SDS011;13450;49.374;8.584;2023-02-28T02:28:01;4.80;;;1.75;;
25559;SDS011;13450;49.374;8.584;2023-02-28T02:36:48;3.40;;;1.58;;
25559;SDS011;13450;49.374;8.584;2023-02-28T02:42:01;4.53;;;1.80;;
25559;SDS011;13450;49.374;8.584;2023-02-28T02:44:41;4.22;;;1.65;;
25559;SDS011;13450;49.374;8.584;2023-02-28T02:47:14;4.35;;;1.75;;
25559;SDS011;13450;49.374;8.584;2023-02-28T02:49:45;3.45;;;1.60;;
25559;SDS011;13450;49.374;8.584;2023-02-28T02:52:15;4.03;;;2.00;;
25559;SDS011;13450;49.374;8.584;2023-02-28T02:54:46;5.95;;;1.95;;
25559;SDS011;13450;49.374;8.584;2023-02-28T02:57:23;5.10;;;2.08;;
25559;SDS011;13450;49.374;8.584;2023-02-28T02:59:54;4.78;;;1.88;;
25559;SDS011;13450;49.374;8.584;2023-02-28T03:02:21;4.57;;;2.10;;
25559;SDS011;13450;49.374;8.584;2023-02-28T03:04:56;5.88;;;1.90;;
25559;SDS011;13450;49.374;8.584;2023-02-28T03:07:25;4.40;;;1.58;;
25559;SDS011;13450;49.374;8.584;2023-02-28T03:09:52;3.60;;;1.65;;
25559;SDS011;13450;49.374;8.584;2023-02-28T03:12:19;5.38;;;2.13;;
25559;SDS011;13450;49.374;8.584;2023-02-28T03:14:56;5.65;;;2.10;;
25559;SDS011;13450;49.374;8.584;2023-02-28T03:17:30;5.85;;;1.95;;
25559;SDS011;13450;49.374;8.584;2023-02-28T03:28:28;5.25;;;2.20;;
25559;SDS011;13450;49.374;8.584;2023-02-28T03:33:33;3.92;;;2.00;;
25559;SDS011;13450;49.374;8.584;2023-02-28T03:36:13;5.38;;;2.00;;
25559;SDS011;13450;49.374;8.584;2023-02-28T03:39:28;4.40;;;2.08;;
25559;SDS011;13450;49.374;8.584;2023-02-28T03:41:37;4.93;;;2.00;;
25559;SDS011;13450;49.374;8.584;2023-02-28T03:44:18;6.75;;;2.20;;
25559;SDS011;13450;49.374;8.584;2023-02-28T03:46:53;5.18;;;2.05;;
25559;SDS011;13450;49.374;8.584;2023-02-28T03:49:32;6.05;;;1.98;;
25559;SDS011;13450;49.374;8.584;2023-02-28T03:52:08;4.05;;;1.70;;
25559;SDS011;13450;49.374;8.584;2023-02-28T03:54:37;5.20;;;2.17;;
25559;SDS011;13450;49.374;8.584;2023-02-28T04:00:03;7.55;;;2.47;;
25559;SDS011;13450;49.374;8.584;2023-02-28T04:02:34;5.93;;;2.70;;
25559;SDS011;13450;49.374;8.584;2023-02-28T04:05:00;7.10;;;2.40;;
25559;SDS011;13450;49.374;8.584;2023-02-28T04:07:28;7.40;;;2.50;;
25559;SDS011;13450;49.374;8.584;2023-02-28T04:09:55;5.73;;;2.40;;
25559;SDS011;13450;49.374;8.584;2023-02-28T04:12:20;5.80;;;1.90;;
25559;SDS011;13450;49.374;8.584;2023-02-28T04:14:48;4.47;;;1.75;;
25559;SDS011;13450;49.374;8.584;2023-02-28T04:17:13;6.80;;;2.10;;
25559;SDS011;13450;49.374;8.584;2023-02-28T04:19:39;7.45;;;2.70;;
25559;SDS011;13450;49.374;8.584;2023-02-28T04:22:04;5.00;;;2.17;;
25559;SDS011;13450;49.374;8.584;2023-02-28T04:24:29;6.22;;;2.40;;
25559;SDS011;13450;49.374;8.584;2023-02-28T04:26:56;5.78;;;2.30;;
25559;SDS011;13450;49.374;8.584;2023-02-28T04:29:32;7.95;;;2.88;;
25559;SDS011;13450;49.374;8.584;2023-02-28T04:31:58;5.07;;;2.25;;
25559;SDS011;13450;49.374;8.584;2023-02-28T04:34:25;6.43;;;2.72;;
25559;SDS011;13450;49.374;8.584;2023-02-28T04:36:53;4.57;;;2.10;;
25559;SDS011;13450;49.374;8.584;2023-02-28T04:39:20;6.90;;;2.92;;
25559;SDS011;13450;49.374;8.584;2023-02-28T04:41:46;5.15;;;2.15;;
25559;SDS011;13450;49.374;8.584;2023-02-28T04:44:11;6.35;;;2.50;;
25559;SDS011;13450;49.374;8.584;2023-02-28T04:46:37;5.30;;;2.45;;
25559;SDS011;13450;49.374;8.584;2023-02-28T04:49:02;4.95;;;2.28;;
25559;SDS011;13450;49.374;8.584;2023-02-28T04:51:28;5.68;;;2.35;;
25559;SDS011;13450;49.374;8.584;2023-02-28T04:53:53;4.00;;;2.28;;
25559;SDS011;13450;49.374;8.584;2023-02-28T04:56:19;6.95;;;2.30;;
25559;SDS011;13450;49.374;8.584;2023-02-28T04:58:45;5.07;;;2.17;;
25559;SDS011;13450;49.374;8.584;2023-02-28T05:03:44;5.47;;;2.38;;
25559;SDS011;13450;49.374;8.584;2023-02-28T05:06:10;6.13;;;2.30;;
25559;SDS011;13450;49.374;8.584;2023-02-28T05:08:37;5.53;;;2.20;;
25559;SDS011;13450;49.374;8.584;2023-02-28T05:11:03;6.38;;;2.10;;
25559;SDS011;13450;49.374;8.584;2023-02-28T05:13:29;5.32;;;2.20;;
25559;SDS011;13450;49.374;8.584;2023-02-28T05:15:55;5.13;;;2.40;;
25559;SDS011;13450;49.374;8.584;2023-02-28T05:18:20;5.40;;;2.33;;
25559;SDS011;13450;49.374;8.584;2023-02-28T05:20:46;5.53;;;2.20;;
25559;SDS011;13450;49.374;8.584;2023-02-28T05:23:12;6.85;;;2.80;;
25559;SDS011;13450;49.374;8.584;2023-02-28T05:25:38;7.47;;;2.33;;
25559;SDS011;13450;49.374;8.584;2023-02-28T05:28:04;6.13;;;2.28;;
25559;SDS011;13450;49.374;8.584;2023-02-28T05:30:34;7.03;;;2.25;;
25559;SDS011;13450;49.374;8.584;2023-02-28T05:33:00;4.70;;;2.10;;
25559;SDS011;13450;49.374;8.584;2023-02-28T05:35:25;6.00;;;2.28;;
25559;SDS011;13450;49.374;8.584;2023-02-28T05:37:51;4.50;;;1.98;;
25559;SDS011;13450;49.374;8.584;2023-02-28T05:40:17;5.10;;;2.00;;
25559;SDS011;13450;49.374;8.584;2023-02-28T05:42:45;6.03;;;2.20;;
25559;SDS011;13450;49.374;8.584;2023-02-28T05:45:11;4.43;;;2.20;;
25559;SDS011;13450;49.374;8.584;2023-02-28T05:47:36;6.80;;;2.25;;
25559;SDS011;13450;49.374;8.584;2023-02-28T05:50:02;9.65;;;3.05;;
25559;SDS011;13450;49.374;8.584;2023-02-28T05:52:28;7.60;;;2.40;;
25559;SDS011;13450;49.374;8.584;2023-02-28T05:54:55;5.32;;;2.60;;
25559;SDS011;13450;49.374;8.584;2023-02-28T05:57:23;6.38;;;2.55;;
25559;SDS011;13450;49.374;8.584;2023-02-28T05:59:48;6.43;;;2.50;;
25559;SDS011;13450;49.374;8.584;2023-02-28T06:02:14;6.32;;;2.78;;
25559;SDS011;13450;49.374;8.584;2023-02-28T06:04:41;5.28;;;2.20;;
25559;SDS011;13450;49.374;8.584;2023-02-28T06:07:07;5.75;;;2.42;;
25559;SDS011;13450;49.374;8.584;2023-02-28T06:09:33;6.28;;;2.83;;
25559;SDS011;13450;49.374;8.584;2023-02-28T06:12:01;6.22;;;2.70;;
25559;SDS011;13450;49.374;8.584;2023-02-28T06:14:30;4.38;;;2.00;;
25559;SDS011;13450;49.374;8.584;2023-02-28T06:16:59;5.35;;;2.35;;
25559;SDS011;13450;49.374;8.584;2023-02-28T06:19:25;5.15;;;2.35;;
25559;SDS011;13450;49.374;8.584;2023-02-28T06:21:51;6.10;;;2.20;;
25559;SDS011;13450;49.374;8.584;2023-02-28T06:24:18;6.25;;;2.33;;
25559;SDS011;13450;49.374;8.584;2023-02-28T06:26:48;5.60;;;2.58;;
25559;SDS011;13450;49.374;8.584;2023-02-28T06:29:14;5.90;;;2.70;;
25559;SDS011;13450;49.374;8.584;2023-02-28T06:31:45;6.65;;;2.50;;
25559;SDS011;13450;49.374;8.584;2023-02-28T06:34:11;7.45;;;2.70;;
25559;SDS011;13450;49.374;8.584;2023-02-28T06:36:37;7.45;;;2.60;;
25559;SDS011;13450;49.374;8.584;2023-02-28T06:39:03;5.00;;;2.15;;
25559;SDS011;13450;49.374;8.584;2023-02-28T06:41:29;5.60;;;2.53;;
25559;SDS011;13450;49.374;8.584;2023-02-28T06:43:54;5.60;;;2.50;;
25559;SDS011;13450;49.374;8.584;2023-02-28T06:46:20;5.35;;;2.58;;
25559;SDS011;13450;49.374;8.584;2023-02-28T06:48:46;4.88;;;2.22;;
25559;SDS011;13450;49.374;8.584;2023-02-28T06:51:16;6.60;;;2.90;;
25559;SDS011;13450;49.374;8.584;2023-02-28T06:53:45;4.90;;;2.20;;
25559;SDS011;13450;49.374;8.584;2023-02-28T06:56:11;7.68;;;2.70;;
25559;SDS011;13450;49.374;8.584;2023-02-28T06:58:38;7.40;;;2.47;;
25559;SDS011;13450;49.374;8.584;2023-02-28T07:01:06;7.28;;;2.65;;
25559;SDS011;13450;49.374;8.584;2023-02-28T07:03:32;6.03;;;2.70;;
25559;SDS011;13450;49.374;8.584;2023-02-28T07:05:58;7.18;;;2.90;;
25559;SDS011;13450;49.374;8.584;2023-02-28T07:08:24;6.68;;;2.90;;
25559;SDS011;13450;49.374;8.584;2023-02-28T07:10:53;6.90;;;2.80;;
25559;SDS011;13450;49.374;8.584;2023-02-28T07:13:19;5.43;;;2.42;;
25559;SDS011;13450;49.374;8.584;2023-02-28T07:15:52;5.05;;;2.33;;
25559;SDS011;13450;49.374;8.584;2023-02-28T07:18:25;6.53;;;2.70;;
25559;SDS011;13450;49.374;8.584;2023-02-28T07:20:51;8.18;;;2.60;;
25559;SDS011;13450;49.374;8.584;2023-02-28T07:23:17;5.18;;;2.50;;
25559;SDS011;13450;49.374;8.584;2023-02-28T07:25:43;5.28;;;2.60;;
25559;SDS011;13450;49.374;8.584;2023-02-28T07:28:09;6.53;;;2.50;;
25559;SDS011;13450;49.374;8.584;2023-02-28T07:30:34;7.00;;;2.63;;
25559;SDS011;13450;49.374;8.584;2023-02-28T07:33:02;8.30;;;3.83;;
25559;SDS011;13450;49.374;8.584;2023-02-28T07:35:28;9.20;;;3.20;;
25559;SDS011;13450;49.374;8.584;2023-02-28T07:37:53;7.97;;;2.70;;
25559;SDS011;13450;49.374;8.584;2023-02-28T07:40:19;7.53;;;3.03;;
25559;SDS011;13450;49.374;8.584;2023-02-28T07:42:44;7.22;;;3.00;;
25559;SDS011;13450;49.374;8.584;2023-02-28T07:45:10;5.97;;;2.85;;
25559;SDS011;13450;49.374;8.584;2023-02-28T07:47:39;6.45;;;2.75;;
25559;SDS011;13450;49.374;8.584;2023-02-28T07:50:07;6.85;;;3.03;;
25559;SDS011;13450;49.374;8.584;2023-02-28T07:52:34;8.40;;;3.28;;
25559;SDS011;13450;49.374;8.584;2023-02-28T07:55:00;6.22;;;2.90;;
25559;SDS011;13450;49.374;8.584;2023-02-28T07:57:26;7.05;;;2.80;;
25559;SDS011;13450;49.374;8.584;2023-02-28T07:59:51;9.35;;;2.92;;
25559;SDS011;13450;49.374;8.584;2023-02-28T08:02:17;6.97;;;2.72;;
25559;SDS011;13450;49.374;8.584;2023-02-28T08:04:43;6.57;;;3.20;;
25559;SDS011;13450;49.374;8.584;2023-02-28T08:07:09;7.50;;;3.40;;
25559;SDS011;13450;49.374;8.584;2023-02-28T08:09:38;7.45;;;3.40;;
25559;SDS011;13450;49.374;8.584;2023-02-28T08:12:04;8.70;;;3.60;;
25559;SDS011;13450;49.374;8.584;2023-02-28T08:14:29;6.32;;;2.90;;
25559;SDS011;13450;49.374;8.584;2023-02-28T08:16:54;6.80;;;3.00;;
25559;SDS011;13450;49.374;8.584;2023-02-28T08:19:20;6.25;;;3.20;;
25559;SDS011;13450;49.374;8.584;2023-02-28T08:21:45;9.85;;;2.92;;
25559;SDS011;13450;49.374;8.584;2023-02-28T08:24:10;6.60;;;2.90;;
25559;SDS011;13450;49.374;8.584;2023-02-28T08:26:36;6.00;;;2.80;;
25559;SDS011;13450;49.374;8.584;2023-02-28T08:29:01;8.32;;;3.08;;
25559;SDS011;13450;49.374;8.584;2023-02-28T08:31:26;7.30;;;3.08;;
25559;SDS011;13450;49.374;8.584;2023-02-28T08:33:52;9.45;;;2.80;;
25559;SDS011;13450;49.374;8.584;2023-02-28T08:36:19;7.47;;;3.05;;
25559;SDS011;13450;49.374;8.584;2023-02-28T08:38:45;7.35;;;3.22;;
25559;SDS011;13450;49.374;8.584;2023-02-28T08:41:11;6.57;;;2.95;;
25559;SDS011;13450;49.374;8.584;2023-02-28T08:43:38;7.72;;;3.40;;
25559;SDS011;13450;49.374;8.584;2023-02-28T08:46:04;7.70;;;3.20;;
25559;SDS011;13450;49.374;8.584;2023-02-28T08:48:31;6.55;;;2.90;;
25559;SDS011;13450;49.374;8.584;2023-02-28T08:53:27;6.57;;;3.22;;
25559;SDS011;13450;49.374;8.584;2023-02-28T08:55:56;8.05;;;3.15;;
25559;SDS011;13450;49.374;8.584;2023-02-28T08:58:25;6.43;;;2.97;;
25559;SDS011;13450;49.374;8.584;2023-02-28T09:00:51;8.32;;;3.28;;
25559;SDS011;13450;49.374;8.584;2023-02-28T09:03:21;7.55;;;3.22;;
25559;SDS011;13450;49.374;8.584;2023-02-28T09:05:55;7.55;;;3.08;;
25559;SDS011;13450;49.374;8.584;2023-02-28T09:08:21;6.88;;;3.30;;
25559;SDS011;13450;49.374;8.584;2023-02-28T09:10:47;10.43;;;3.47;;
25559;SDS011;13450;49.374;8.584;2023-02-28T09:13:13;6.80;;;3.40;;
25559;SDS011;13450;49.374;8.584;2023-02-28T09:15:38;8.95;;;3.20;;
25559;SDS011;13450;49.374;8.584;2023-02-28T09:18:03;8.13;;;3.17;;
25559;SDS011;13450;49.374;8.584;2023-02-28T09:20:29;6.25;;;3.15;;
25559;SDS011;13450;49.374;8.584;2023-02-28T09:22:59;5.90;;;2.78;;
25559;SDS011;13450;49.374;8.584;2023-02-28T09:25:24;7.72;;;3.45;;
25559;SDS011;13450;49.374;8.584;2023-02-28T09:27:49;7.53;;;3.22;;
25559;SDS011;13450;49.374;8.584;2023-02-28T09:30:15;6.43;;;2.80;;
25559;SDS011;13450;49.374;8.584;2023-02-28T09:32:41;6.50;;;2.92;;
25559;SDS011;13450;49.374;8.584;2023-02-28T09:35:06;7.80;;;3.28;;
25559;SDS011;13450;49.374;8.584;2023-02-28T09:37:39;7.43;;;3.33;;
25559;SDS011;13450;49.374;8.584;2023-02-28T09:40:04;8.77;;;3.17;;
25559;SDS011;13450;49.374;8.584;2023-02-28T09:42:31;7.25;;;3.50;;
25559;SDS011;13450;49.374;8.584;2023-02-28T09:44:59;7.68;;;3.17;;
25559;SDS011;13450;49.374;8.584;2023-02-28T09:47:31;7.45;;;3.15;;
25559;SDS011;13450;49.374;8.584;2023-02-28T09:50:01;6.05;;;2.83;;
25559;SDS011;13450;49.374;8.584;2023-02-28T09:52:43;6.68;;;3.05;;
25559;SDS011;13450;49.374;8.584;2023-02-28T09:55:20;7.15;;;3.03;;
25559;SDS011;13450;49.374;8.584;2023-02-28T09:57:52;6.35;;;3.00;;
25559;SDS011;13450;49.374;8.584;2023-02-28T10:00:24;7.60;;;3.17;;
25559;SDS011;13450;49.374;8.584;2023-02-28T10:02:58;8.55;;;3.20;;
25559;SDS011;13450;49.374;8.584;2023-02-28T10:05:51;6.45;;;2.88;;
25559;SDS011;13450;49.374;8.584;2023-02-28T10:08:31;6.07;;;2.97;;
25559;SDS011;13450;49.374;8.584;2023-02-28T10:11:07;7.97;;;3.75;;
25559;SDS011;13450;49.374;8.584;2023-02-28T10:16:31;7.40;;;3.40;;
25559;SDS011;13450;49.374;8.584;2023-02-28T10:21:36;8.52;;;3.33;;
25559;SDS011;13450;49.374;8.584;2023-02-28T10:24:23;6.60;;;3.00;;
25559;SDS011;13450;49.374;8.584;2023-02-28T10:26:56;6.18;;;2.92;;
25559;SDS011;13450;49.374;8.584;2023-02-28T10:29:24;7.13;;;2.95;;
25559;SDS011;13450;49.374;8.584;2023-02-28T10:31:50;7.22;;;3.40;;
25559;SDS011;13450;49.374;8.584;2023-02-28T10:34:16;7.40;;;3.40;;
25559;SDS011;13450;49.374;8.584;2023-02-28T10:36:41;6.22;;;3.17;;
25559;SDS011;13450;49.374;8.584;2023-02-28T10:42:04;10.20;;;3.30;;
25559;SDS011;13450;49.374;8.584;2023-02-28T10:44:43;13.90;;;5.60;;
25559;SDS011;13450;49.374;8.584;2023-02-28T10:47:13;8.90;;;3.60;;
25559;SDS011;13450;49.374;8.584;2023-02-28T10:49:45;7.35;;;3.63;;
25559;SDS011;13450;49.374;8.584;2023-02-28T10:52:12;7.07;;;3.40;;
25559;SDS011;13450;49.374;8.584;2023-02-28T10:55:13;9.45;;;3.53;;
25559;SDS011;13450;49.374;8.584;2023-02-28T10:57:40;7.95;;;3.10;;
25559;SDS011;13450;49.374;8.584;2023-02-28T11:00:14;7.88;;;3.45;;
25559;SDS011;13450;49.374;8.584;2023-02-28T11:02:49;5.75;;;2.80;;
25559;SDS011;13450;49.374;8.584;2023-02-28T11:10:30;6.13;;;2.95;;
25559;SDS011;13450;49.374;8.584;2023-02-28T11:13:00;5.75;;;2.60;;
25559;SDS011;13450;49.374;8.584;2023-02-28T11:15:28;6.07;;;3.20;;
25559;SDS011;13450;49.374;8.584;2023-02-28T11:17:59;6.82;;;3.20;;
25559;SDS011;13450;49.374;8.584;2023-02-28T11:20:47;6.38;;;3.22;;
25559;SDS011;13450;49.374;8.584;2023-02-28T11:23:15;6.28;;;3.22;;
25559;SDS011;13450;49.374;8.584;2023-02-28T11:25:47;6.23;;;2.57;;
25559;SDS011;13450;49.374;8.584;2023-02-28T11:33:32;5.13;;;2.95;;
25559;SDS011;13450;49.374;8.584;2023-02-28T11:38:41;5.80;;;2.75;;
25559;SDS011;13450;49.374;8.584;2023-02-28T11:46:53;6.10;;;3.35;;
25559;SDS011;13450;49.374;8.584;2023-02-28T11:52:20;14.30;;;3.42;;
25559;SDS011;13450;49.374;8.584;2023-02-28T12:11:14;6.95;;;3.25;;
25559;SDS011;13450;49.374;8.584;2023-02-28T12:14:12;6.55;;;3.30;;
25559;SDS011;13450;49.374;8.584;2023-02-28T12:17:15;7.40;;;3.40;;
25559;SDS011;13450;49.374;8.584;2023-02-28T12:25:10;6.72;;;3.35;;
25559;SDS011;13450;49.374;8.584;2023-02-28T12:27:49;6.10;;;3.20;;
25559;SDS011;13450;49.374;8.584;2023-02-28T12:30:27;6.68;;;3.47;;
25559;SDS011;13450;49.374;8.584;2023-02-28T12:33:08;6.75;;;3.40;;
25559;SDS011;13450;49.374;8.584;2023-02-28T12:35:54;6.53;;;3.30;;
25559;SDS011;13450;49.374;8.584;2023-02-28T12:40:59;6.60;;;3.20;;
25559;SDS011;13450;49.374;8.584;2023-02-28T12:43:29;5.90;;;3.25;;
25559;SDS011;13450;49.374;8.584;2023-02-28T12:46:09;6.95;;;3.67;;
25559;SDS011;13450;49.374;8.584;2023-02-28T12:48:39;7.50;;;3.92;;
25559;SDS011;13450;49.374;8.584;2023-02-28T12:51:13;7.20;;;3.58;;
25559;SDS011;13450;49.374;8.584;2023-02-28T12:53:53;8.00;;;3.75;;
25559;SDS011;13450;49.374;8.584;2023-02-28T13:02:09;8.13;;;3.80;;
25559;SDS011;13450;49.374;8.584;2023-02-28T13:05:07;7.40;;;3.65;;
25559;SDS011;13450;49.374;8.584;2023-02-28T13:10:43;6.00;;;3.28;;
25559;SDS011;13450;49.374;8.584;2023-02-28T13:13:14;7.65;;;3.70;;
25559;SDS011;13450;49.374;8.584;2023-02-28T13:16:06;6.40;;;4.00;;
25559;SDS011;13450;49.374;8.584;2023-02-28T13:21:01;9.02;;;4.72;;
25559;SDS011;13450;49.374;8.584;2023-02-28T13:26:12;8.38;;;4.82;;
25559;SDS011;13450;49.374;8.584;2023-02-28T13:31:29;8.82;;;4.32;;
25559;SDS011;13450;49.374;8.584;2023-02-28T13:36:28;6.70;;;3.60;;
25559;SDS011;13450;49.374;8.584;2023-02-28T13:39:01;7.50;;;4.10;;
25559;SDS011;13450;49.374;8.584;2023-02-28T13:44:12;7.57;;;3.60;;
25559;SDS011;13450;49.374;8.584;2023-02-28T13:49:27;7.13;;;4.00;;
25559;SDS011;13450;49.374;8.584;2023-02-28T14:05:37;5.70;;;3.22;;
25559;SDS011;13450;49.374;8.584;2023-02-28T14:08:04;6.68;;;3.92;;
25559;SDS011;13450;49.374;8.584;2023-02-28T14:10:47;7.40;;;4.03;;
25559;SDS011;13450;49.374;8.584;2023-02-28T14:16:25;6.55;;;3.58;;
25559;SDS011;13450;49.374;8.584;2023-02-28T14:18:58;6.13;;;3.60;;
25559;SDS011;13450;49.374;8.584;2023-02-28T14:21:31;9.07;;;3.80;;
25559;SDS011;13450;49.374;8.584;2023-02-28T14:38:59;8.75;;;3.78;;
25559;SDS011;13450;49.374;8.584;2023-02-28T14:41:31;5.53;;;3.33;;
25559;SDS011;13450;49.374;8.584;2023-02-28T14:44:02;8.02;;;3.53;;
25559;SDS011;13450;49.374;8.584;2023-02-28T14:46:39;7.07;;;4.00;;
25559;SDS011;13450;49.374;8.584;2023-02-28T14:49:07;6.90;;;3.72;;
25559;SDS011;13450;49.374;8.584;2023-02-28T14:51:40;7.28;;;3.90;;
25559;SDS011;13450;49.374;8.584;2023-02-28T14:54:12;6.70;;;3.40;;
25559;SDS011;13450;49.374;8.584;2023-02-28T14:56:40;7.68;;;3.90;;
25559;SDS011;13450;49.374;8.584;2023-02-28T14:59:21;6.80;;;3.65;;
25559;SDS011;13450;49.374;8.584;2023-02-28T15:01:52;9.93;;;4.35;;
25559;SDS011;13450;49.374;8.584;2023-02-28T15:04:37;9.20;;;4.13;;
25559;SDS011;13450;49.374;8.584;2023-02-28T15:07:10;8.68;;;3.80;;
25559;SDS011;13450;49.374;8.584;2023-02-28T15:09:38;7.68;;;3.65;;
25559;SDS011;13450;49.374;8.584;2023-02-28T15:12:03;8.45;;;3.88;;
25559;SDS011;13450;49.374;8.584;2023-02-28T15:14:31;8.15;;;4.03;;
25559;SDS011;13450;49.374;8.584;2023-02-28T15:17:01;7.88;;;3.95;;
25559;SDS011;13450;49.374;8.584;2023-02-28T15:19:34;8.50;;;4.20;;
25559;SDS011;13450;49.374;8.584;2023-02-28T15:22:15;12.05;;;4.70;;
25559;SDS011;13450;49.374;8.584;2023-02-28T15:24:48;7.38;;;3.53;;
25559;SDS011;13450;49.374;8.584;2023-02-28T15:27:20;7.03;;;3.90;;
25559;SDS011;13450;49.374;8.584;2023-02-28T15:29:47;9.50;;;4.25;;
25559;SDS011;13450;49.374;8.584;2023-02-28T15:34:53;9.40;;;4.18;;
25559;SDS011;13450;49.374;8.584;2023-02-28T15:40:23;9.15;;;3.70;;
25559;SDS011;13450;49.374;8.584;2023-02-28T15:48:30;9.13;;;4.28;;
25559;SDS011;13450;49.374;8.584;2023-02-28T15:51:09;8.73;;;3.80;;
25559;SDS011;13450;49.374;8.584;2023-02-28T15:53:48;7.72;;;4.13;;
25559;SDS011;13450;49.374;8.584;2023-02-28T15:56:23;9.93;;;4.22;;
25559;SDS011;13450;49.374;8.584;2023-02-28T15:58:58;9.43;;;4.40;;
25559;SDS011;13450;49.374;8.584;2023-02-28T16:01:29;8.25;;;3.80;;
25559;SDS011;13450;49.374;8.584;2023-02-28T16:04:10;8.48;;;3.88;;
25559;SDS011;13450;49.374;8.584;2023-02-28T16:06:46;8.32;;;4.15;;
25559;SDS011;13450;49.374;8.584;2023-02-28T16:09:26;9.57;;;3.75;;
25559;SDS011;13450;49.374;8.584;2023-02-28T16:11:53;8.25;;;3.90;;
25559;SDS011;13450;49.374;8.584;2023-02-28T16:14:22;9.45;;;3.92;;
25559;SDS011;13450;49.374;8.584;2023-02-28T16:16:52;8.27;;;4.18;;
25559;SDS011;13450;49.374;8.584;2023-02-28T16:19:21;10.73;;;4.30;;
25559;SDS011;13450;49.374;8.584;2023-02-28T16:21:47;9.27;;;4.43;;
25559;SDS011;13450;49.374;8.584;2023-02-28T16:24:13;8.85;;;4.10;;
25559;SDS011;13450;49.374;8.584;2023-02-28T16:26:42;9.90;;;4.65;;
25559;SDS011;13450;49.374;8.584;2023-02-28T16:29:14;7.78;;;4.10;;
25559;SDS011;13450;49.374;8.584;2023-02-28T16:31:48;8.52;;;4.32;;
25559;SDS011;13450;49.374;8.584;2023-02-28T16:34:15;8.93;;;4.22;;
25559;SDS011;13450;49.374;8.584;2023-02-28T16:36:41;10.52;;;4.38;;
25559;SDS011;13450;49.374;8.584;2023-02-28T16:39:06;8.60;;;4.15;;
25559;SDS011;13450;49.374;8.584;2023-02-28T16:41:31;11.38;;;4.30;;
25559;SDS011;13450;49.374;8.584;2023-02-28T16:43:59;12.55;;;4.90;;
25559;SDS011;13450;49.374;8.584;2023-02-28T16:46:30;8.85;;;3.95;;
25559;SDS011;13450;49.374;8.584;2023-02-28T16:49:02;10.40;;;4.78;;
25559;SDS011;13450;49.374;8.584;2023-02-28T16:51:27;12.90;;;4.85;;
25559;SDS011;13450;49.374;8.584;2023-02-28T16:53:52;9.60;;;3.97;;
25559;SDS011;13450;49.374;8.584;2023-02-28T16:56:18;8.20;;;3.90;;
25559;SDS011;13450;49.374;8.584;2023-02-28T16:58:46;8.85;;;4.07;;
25559;SDS011;13450;49.374;8.584;2023-02-28T17:01:12;9.25;;;4.03;;
25559;SDS011;13450;49.374;8.584;2023-02-28T17:03:37;10.40;;;4.72;;
25559;SDS011;13450;49.374;8.584;2023-02-28T17:06:03;10.32;;;3.80;;
25559;SDS011;13450;49.374;8.584;2023-02-28T17:08:30;8.40;;;3.95;;
25559;SDS011;13450;49.374;8.584;2023-02-28T17:10:57;8.73;;;3.70;;
25559;SDS011;13450;49.374;8.584;2023-02-28T17:13:24;9.40;;;3.88;;
25559;SDS011;13450;49.374;8.584;2023-02-28T17:15:52;7.47;;;3.42;;
25559;SDS011;13450;49.374;8.584;2023-02-28T17:18:18;9.05;;;3.92;;
25559;SDS011;13450;49.374;8.584;2023-02-28T17:20:46;10.63;;;4.85;;
25559;SDS011;13450;49.374;8.584;2023-02-28T17:23:13;10.93;;;4.28;;
25559;SDS011;13450;49.374;8.584;2023-02-28T17:25:39;8.93;;;4.10;;
25559;SDS011;13450;49.374;8.584;2023-02-28T17:28:05;8.38;;;3.92;;
25559;SDS011;13450;49.374;8.584;2023-02-28T17:30:32;8.93;;;4.68;;
25559;SDS011;13450;49.374;8.584;2023-02-28T17:32:59;8.43;;;3.97;;
25559;SDS011;13450;49.374;8.584;2023-02-28T17:35:25;9.38;;;4.28;;
25559;SDS011;13450;49.374;8.584;2023-02-28T17:37:51;10.00;;;4.20;;
25559;SDS011;13450;49.374;8.584;2023-02-28T17:40:21;9.07;;;4.40;;
25559;SDS011;13450;49.374;8.584;2023-02-28T17:42:49;10.82;;;4.35;;